sensor_id;sensor_type;location;lat;lon;timestamp;P1;durP1;ratioP1;P2;durP2;ratioP2
19776;SDS011;10047;42.490;26.012;2023-04-03T00:00:46;5.10;;;3.42;;
19776;SDS011;10047;42.490;26.012;2023-04-03T00:03:11;5.47;;;3.88;;
19776;SDS011;10047;42.490;26.012;2023-04-03T00:05:41;6.63;;;3.70;;
19776;SDS011;10047;42.490;26.012;2023-04-03T00:08:07;6.90;;;3.83;;
19776;SDS011;10047;42.490;26.012;2023-04-03T00:10:34;4.93;;;3.60;;
19776;SDS011;10047;42.490;26.012;2023-04-03T00:13:01;4.97;;;3.15;;
19776;SDS011;10047;42.490;26.012;2023-04-03T00:15:27;4.70;;;2.60;;
19776;SDS011;10047;42.490;26.012;2023-04-03T00:17:53;3.20;;;2.30;;
19776;SDS011;10047;42.490;26.012;2023-04-03T00:20:19;2.70;;;2.40;;
19776;SDS011;10047;42.490;26.012;2023-04-03T00:22:45;3.20;;;2.83;;
19776;SDS011;10047;42.490;26.012;2023-04-03T00:25:10;5.03;;;2.67;;
19776;SDS011;10047;42.490;26.012;2023-04-03T00:27:37;3.30;;;2.65;;
19776;SDS011;10047;42.490;26.012;2023-04-03T00:30:04;3.45;;;2.60;;
19776;SDS011;10047;42.490;26.012;2023-04-03T00:32:31;3.90;;;2.33;;
19776;SDS011;10047;42.490;26.012;2023-04-03T00:34:57;4.15;;;3.10;;
19776;SDS011;10047;42.490;26.012;2023-04-03T00:37:22;3.92;;;3.10;;
19776;SDS011;10047;42.490;26.012;2023-04-03T00:39:48;6.50;;;4.05;;
19776;SDS011;10047;42.490;26.012;2023-04-03T00:42:13;5.45;;;3.90;;
19776;SDS011;10047;42.490;26.012;2023-04-03T00:47:07;5.18;;;3.83;;
19776;SDS011;10047;42.490;26.012;2023-04-03T00:49:36;5.70;;;3.83;;
19776;SDS011;10047;42.490;26.012;2023-04-03T00:52:03;4.55;;;3.63;;
19776;SDS011;10047;42.490;26.012;2023-04-03T00:54:31;5.55;;;4.20;;
19776;SDS011;10047;42.490;26.012;2023-04-03T00:57:00;7.40;;;4.53;;
19776;SDS011;10047;42.490;26.012;2023-04-03T00:59:27;7.95;;;3.95;;
19776;SDS011;10047;42.490;26.012;2023-04-03T01:01:56;4.97;;;3.63;;
19776;SDS011;10047;42.490;26.012;2023-04-03T01:07:08;5.47;;;4.20;;
19776;SDS011;10047;42.490;26.012;2023-04-03T01:09:37;7.43;;;5.20;;
19776;SDS011;10047;42.490;26.012;2023-04-03T01:12:13;8.55;;;6.55;;
19776;SDS011;10047;42.490;26.012;2023-04-03T01:14:42;8.02;;;5.45;;
19776;SDS011;10047;42.490;26.012;2023-04-03T01:19:57;8.93;;;6.07;;
19776;SDS011;10047;42.490;26.012;2023-04-03T01:25:45;6.55;;;4.55;;
19776;SDS011;10047;42.490;26.012;2023-04-03T01:28:21;5.83;;;4.77;;
19776;SDS011;10047;42.490;26.012;2023-04-03T01:33:53;5.40;;;4.30;;
19776;SDS011;10047;42.490;26.012;2023-04-03T01:36:21;5.10;;;4.00;;
19776;SDS011;10047;42.490;26.012;2023-04-03T01:38:52;5.60;;;3.55;;
19776;SDS011;10047;42.490;26.012;2023-04-03T01:41:18;4.93;;;3.50;;
19776;SDS011;10047;42.490;26.012;2023-04-03T01:43:45;4.30;;;3.85;;
19776;SDS011;10047;42.490;26.012;2023-04-03T01:46:12;5.00;;;3.90;;
19776;SDS011;10047;42.490;26.012;2023-04-03T01:48:38;4.30;;;3.60;;
19776;SDS011;10047;42.490;26.012;2023-04-03T01:51:03;5.47;;;4.18;;
19776;SDS011;10047;42.490;26.012;2023-04-03T01:53:29;5.35;;;3.95;;
19776;SDS011;10047;42.490;26.012;2023-04-03T01:55:54;4.95;;;3.92;;
19776;SDS011;10047;42.490;26.012;2023-04-03T01:58:20;3.85;;;3.30;;
19776;SDS011;10047;42.490;26.012;2023-04-03T02:00:45;5.68;;;3.92;;
19776;SDS011;10047;42.490;26.012;2023-04-03T02:03:11;4.93;;;3.83;;
19776;SDS011;10047;42.490;26.012;2023-04-03T02:05:37;4.00;;;3.45;;
19776;SDS011;10047;42.490;26.012;2023-04-03T02:08:03;4.13;;;3.70;;
19776;SDS011;10047;42.490;26.012;2023-04-03T02:10:28;5.28;;;3.83;;
19776;SDS011;10047;42.490;26.012;2023-04-03T02:12:53;8.93;;;4.05;;
19776;SDS011;10047;42.490;26.012;2023-04-03T02:15:19;4.97;;;3.70;;
19776;SDS011;10047;42.490;26.012;2023-04-03T02:17:46;5.45;;;4.32;;
19776;SDS011;10047;42.490;26.012;2023-04-03T02:20:12;6.35;;;4.80;;
19776;SDS011;10047;42.490;26.012;2023-04-03T02:22:37;15.63;;;13.93;;
19776;SDS011;10047;42.490;26.012;2023-04-03T02:25:03;12.15;;;9.05;;
19776;SDS011;10047;42.490;26.012;2023-04-03T02:27:31;8.48;;;6.70;;
19776;SDS011;10047;42.490;26.012;2023-04-03T02:29:57;8.52;;;5.65;;
19776;SDS011;10047;42.490;26.012;2023-04-03T02:32:22;6.25;;;4.75;;
19776;SDS011;10047;42.490;26.012;2023-04-03T02:34:48;7.32;;;5.00;;
19776;SDS011;10047;42.490;26.012;2023-04-03T02:37:13;6.38;;;4.80;;
19776;SDS011;10047;42.490;26.012;2023-04-03T02:39:39;4.60;;;4.00;;
19776;SDS011;10047;42.490;26.012;2023-04-03T02:42:04;6.40;;;4.18;;
19776;SDS011;10047;42.490;26.012;2023-04-03T02:44:29;9.30;;;4.15;;
19776;SDS011;10047;42.490;26.012;2023-04-03T02:46:56;6.50;;;4.28;;
19776;SDS011;10047;42.490;26.012;2023-04-03T02:49:21;7.15;;;5.03;;
19776;SDS011;10047;42.490;26.012;2023-04-03T02:51:47;7.43;;;4.65;;
19776;SDS011;10047;42.490;26.012;2023-04-03T02:54:12;6.88;;;4.90;;
19776;SDS011;10047;42.490;26.012;2023-04-03T02:56:38;5.63;;;4.38;;
19776;SDS011;10047;42.490;26.012;2023-04-03T02:59:04;7.00;;;5.15;;
19776;SDS011;10047;42.490;26.012;2023-04-03T03:01:30;11.68;;;7.80;;
19776;SDS011;10047;42.490;26.012;2023-04-03T03:03:57;8.73;;;6.20;;
19776;SDS011;10047;42.490;26.012;2023-04-03T03:06:24;7.18;;;5.82;;
19776;SDS011;10047;42.490;26.012;2023-04-03T03:08:50;6.20;;;5.00;;
19776;SDS011;10047;42.490;26.012;2023-04-03T03:11:15;7.32;;;5.20;;
19776;SDS011;10047;42.490;26.012;2023-04-03T03:13:41;6.45;;;5.40;;
19776;SDS011;10047;42.490;26.012;2023-04-03T03:16:06;9.68;;;6.20;;
19776;SDS011;10047;42.490;26.012;2023-04-03T03:18:32;11.02;;;6.20;;
19776;SDS011;10047;42.490;26.012;2023-04-03T03:20:59;9.93;;;6.20;;
19776;SDS011;10047;42.490;26.012;2023-04-03T03:23:26;10.15;;;5.97;;
19776;SDS011;10047;42.490;26.012;2023-04-03T03:25:57;9.45;;;6.20;;
19776;SDS011;10047;42.490;26.012;2023-04-03T03:28:25;8.27;;;5.25;;
19776;SDS011;10047;42.490;26.012;2023-04-03T03:30:51;12.32;;;6.72;;
19776;SDS011;10047;42.490;26.012;2023-04-03T03:33:17;37.85;;;16.83;;
19776;SDS011;10047;42.490;26.012;2023-04-03T03:35:43;22.23;;;11.45;;
19776;SDS011;10047;42.490;26.012;2023-04-03T03:38:09;23.35;;;10.25;;
19776;SDS011;10047;42.490;26.012;2023-04-03T03:40:34;25.30;;;12.70;;
19776;SDS011;10047;42.490;26.012;2023-04-03T03:43:00;15.30;;;8.35;;
19776;SDS011;10047;42.490;26.012;2023-04-03T03:45:25;18.10;;;10.40;;
19776;SDS011;10047;42.490;26.012;2023-04-03T03:47:51;17.05;;;10.20;;
19776;SDS011;10047;42.490;26.012;2023-04-03T03:50:17;23.10;;;11.57;;
19776;SDS011;10047;42.490;26.012;2023-04-03T03:52:42;13.80;;;8.18;;
19776;SDS011;10047;42.490;26.012;2023-04-03T03:55:08;22.15;;;7.60;;
19776;SDS011;10047;42.490;26.012;2023-04-03T03:57:33;9.77;;;7.00;;
19776;SDS011;10047;42.490;26.012;2023-04-03T03:59:59;14.85;;;8.82;;
19776;SDS011;10047;42.490;26.012;2023-04-03T04:02:24;12.85;;;8.68;;
19776;SDS011;10047;42.490;26.012;2023-04-03T04:04:50;24.25;;;11.10;;
19776;SDS011;10047;42.490;26.012;2023-04-03T04:07:15;24.17;;;11.68;;
19776;SDS011;10047;42.490;26.012;2023-04-03T04:09:41;14.75;;;8.18;;
19776;SDS011;10047;42.490;26.012;2023-04-03T04:12:06;14.55;;;8.32;;
19776;SDS011;10047;42.490;26.012;2023-04-03T04:14:31;11.23;;;7.45;;
19776;SDS011;10047;42.490;26.012;2023-04-03T04:16:57;9.15;;;6.45;;
19776;SDS011;10047;42.490;26.012;2023-04-03T04:19:22;6.95;;;6.00;;
19776;SDS011;10047;42.490;26.012;2023-04-03T04:21:50;7.95;;;5.78;;
19776;SDS011;10047;42.490;26.012;2023-04-03T04:24:15;12.13;;;6.80;;
19776;SDS011;10047;42.490;26.012;2023-04-03T04:26:41;9.32;;;7.78;;
19776;SDS011;10047;42.490;26.012;2023-04-03T04:29:08;10.07;;;6.30;;
19776;SDS011;10047;42.490;26.012;2023-04-03T04:31:36;11.68;;;7.28;;
19776;SDS011;10047;42.490;26.012;2023-04-03T04:34:02;14.15;;;8.60;;
19776;SDS011;10047;42.490;26.012;2023-04-03T04:36:28;8.52;;;6.68;;
19776;SDS011;10047;42.490;26.012;2023-04-03T04:38:53;14.90;;;8.02;;
19776;SDS011;10047;42.490;26.012;2023-04-03T04:41:20;20.23;;;11.25;;
19776;SDS011;10047;42.490;26.012;2023-04-03T04:43:47;13.50;;;11.23;;
19776;SDS011;10047;42.490;26.012;2023-04-03T04:46:13;11.90;;;10.75;;
19776;SDS011;10047;42.490;26.012;2023-04-03T04:48:39;12.85;;;8.98;;
19776;SDS011;10047;42.490;26.012;2023-04-03T04:51:05;11.05;;;9.00;;
19776;SDS011;10047;42.490;26.012;2023-04-03T04:53:32;11.95;;;10.77;;
19776;SDS011;10047;42.490;26.012;2023-04-03T04:55:58;22.27;;;16.48;;
19776;SDS011;10047;42.490;26.012;2023-04-03T04:58:23;14.45;;;13.05;;
19776;SDS011;10047;42.490;26.012;2023-04-03T05:00:48;20.67;;;17.25;;
19776;SDS011;10047;42.490;26.012;2023-04-03T05:03:14;17.35;;;15.05;;
19776;SDS011;10047;42.490;26.012;2023-04-03T05:05:40;13.52;;;11.43;;
19776;SDS011;10047;42.490;26.012;2023-04-03T05:08:05;17.92;;;8.75;;
19776;SDS011;10047;42.490;26.012;2023-04-03T05:10:33;20.45;;;12.10;;
19776;SDS011;10047;42.490;26.012;2023-04-03T05:12:59;20.05;;;10.63;;
19776;SDS011;10047;42.490;26.012;2023-04-03T05:15:24;17.35;;;10.15;;
19776;SDS011;10047;42.490;26.012;2023-04-03T05:17:50;10.07;;;7.57;;
19776;SDS011;10047;42.490;26.012;2023-04-03T05:20:16;8.02;;;6.38;;
19776;SDS011;10047;42.490;26.012;2023-04-03T05:22:42;11.95;;;7.50;;
19776;SDS011;10047;42.490;26.012;2023-04-03T05:25:07;10.23;;;7.25;;
19776;SDS011;10047;42.490;26.012;2023-04-03T05:27:33;8.25;;;5.07;;
19776;SDS011;10047;42.490;26.012;2023-04-03T05:29:58;6.47;;;5.70;;
19776;SDS011;10047;42.490;26.012;2023-04-03T05:32:24;6.60;;;5.60;;
19776;SDS011;10047;42.490;26.012;2023-04-03T05:34:52;8.63;;;6.30;;
19776;SDS011;10047;42.490;26.012;2023-04-03T05:37:18;5.95;;;5.35;;
19776;SDS011;10047;42.490;26.012;2023-04-03T05:39:44;5.88;;;4.72;;
19776;SDS011;10047;42.490;26.012;2023-04-03T05:42:10;8.52;;;5.80;;
19776;SDS011;10047;42.490;26.012;2023-04-03T05:44:36;7.20;;;5.80;;
19776;SDS011;10047;42.490;26.012;2023-04-03T05:47:03;8.40;;;6.65;;
19776;SDS011;10047;42.490;26.012;2023-04-03T05:51:58;21.77;;;11.88;;
19776;SDS011;10047;42.490;26.012;2023-04-03T05:54:28;15.63;;;11.75;;
19776;SDS011;10047;42.490;26.012;2023-04-03T05:56:54;15.70;;;10.43;;
19776;SDS011;10047;42.490;26.012;2023-04-03T05:59:20;12.52;;;9.25;;
19776;SDS011;10047;42.490;26.012;2023-04-03T06:01:46;12.68;;;8.70;;
19776;SDS011;10047;42.490;26.012;2023-04-03T06:04:12;12.95;;;8.18;;
19776;SDS011;10047;42.490;26.012;2023-04-03T06:06:52;14.13;;;8.95;;
19776;SDS011;10047;42.490;26.012;2023-04-03T06:09:19;13.93;;;9.50;;
19776;SDS011;10047;42.490;26.012;2023-04-03T06:11:46;15.65;;;11.25;;
19776;SDS011;10047;42.490;26.012;2023-04-03T06:14:12;17.33;;;10.13;;
19776;SDS011;10047;42.490;26.012;2023-04-03T06:16:37;15.15;;;10.63;;
19776;SDS011;10047;42.490;26.012;2023-04-03T06:19:04;15.65;;;11.05;;
19776;SDS011;10047;42.490;26.012;2023-04-03T06:21:30;14.00;;;9.77;;
19776;SDS011;10047;42.490;26.012;2023-04-03T06:23:56;14.55;;;10.13;;
19776;SDS011;10047;42.490;26.012;2023-04-03T06:26:22;13.43;;;9.30;;
19776;SDS011;10047;42.490;26.012;2023-04-03T06:28:47;11.95;;;8.50;;
19776;SDS011;10047;42.490;26.012;2023-04-03T06:31:13;14.90;;;7.57;;
19776;SDS011;10047;42.490;26.012;2023-04-03T06:33:38;13.32;;;7.25;;
19776;SDS011;10047;42.490;26.012;2023-04-03T06:36:04;9.73;;;7.00;;
19776;SDS011;10047;42.490;26.012;2023-04-03T06:38:30;11.45;;;7.30;;
19776;SDS011;10047;42.490;26.012;2023-04-03T06:40:57;15.95;;;9.05;;
19776;SDS011;10047;42.490;26.012;2023-04-03T06:43:23;13.35;;;9.75;;
19776;SDS011;10047;42.490;26.012;2023-04-03T06:45:49;14.50;;;9.60;;
19776;SDS011;10047;42.490;26.012;2023-04-03T06:48:15;16.88;;;11.52;;
19776;SDS011;10047;42.490;26.012;2023-04-03T06:50:41;18.05;;;10.93;;
19776;SDS011;10047;42.490;26.012;2023-04-03T06:53:07;17.38;;;10.93;;
19776;SDS011;10047;42.490;26.012;2023-04-03T06:55:33;16.38;;;11.10;;
19776;SDS011;10047;42.490;26.012;2023-04-03T06:57:58;18.27;;;13.75;;
19776;SDS011;10047;42.490;26.012;2023-04-03T07:00:24;20.73;;;12.50;;
19776;SDS011;10047;42.490;26.012;2023-04-03T07:02:54;17.70;;;11.43;;
19776;SDS011;10047;42.490;26.012;2023-04-03T07:05:22;21.08;;;13.48;;
19776;SDS011;10047;42.490;26.012;2023-04-03T07:07:48;18.70;;;13.77;;
19776;SDS011;10047;42.490;26.012;2023-04-03T07:10:15;17.58;;;12.90;;
19776;SDS011;10047;42.490;26.012;2023-04-03T07:12:41;24.50;;;16.33;;
19776;SDS011;10047;42.490;26.012;2023-04-03T07:15:07;23.17;;;15.65;;
19776;SDS011;10047;42.490;26.012;2023-04-03T07:17:33;23.50;;;14.80;;
19776;SDS011;10047;42.490;26.012;2023-04-03T07:19:58;17.95;;;14.02;;
19776;SDS011;10047;42.490;26.012;2023-04-03T07:22:24;21.77;;;14.45;;
19776;SDS011;10047;42.490;26.012;2023-04-03T07:24:49;21.38;;;13.82;;
19776;SDS011;10047;42.490;26.012;2023-04-03T07:27:15;27.77;;;15.63;;
19776;SDS011;10047;42.490;26.012;2023-04-03T07:29:42;24.95;;;12.65;;
19776;SDS011;10047;42.490;26.012;2023-04-03T07:32:09;22.52;;;11.90;;
19776;SDS011;10047;42.490;26.012;2023-04-03T07:34:35;15.75;;;9.80;;
19776;SDS011;10047;42.490;26.012;2023-04-03T07:37:01;16.85;;;10.25;;
19776;SDS011;10047;42.490;26.012;2023-04-03T07:39:27;16.05;;;7.88;;
19776;SDS011;10047;42.490;26.012;2023-04-03T07:41:53;9.07;;;6.65;;
19776;SDS011;10047;42.490;26.012;2023-04-03T07:44:20;11.55;;;6.75;;
19776;SDS011;10047;42.490;26.012;2023-04-03T07:46:46;11.45;;;6.88;;
19776;SDS011;10047;42.490;26.012;2023-04-03T07:49:11;12.73;;;6.28;;
19776;SDS011;10047;42.490;26.012;2023-04-03T07:51:39;9.70;;;6.10;;
19776;SDS011;10047;42.490;26.012;2023-04-03T07:54:05;9.85;;;5.93;;
19776;SDS011;10047;42.490;26.012;2023-04-03T07:56:31;9.55;;;5.97;;
19776;SDS011;10047;42.490;26.012;2023-04-03T07:58:57;10.63;;;5.90;;
19776;SDS011;10047;42.490;26.012;2023-04-03T08:01:27;5.93;;;4.10;;
19776;SDS011;10047;42.490;26.012;2023-04-03T08:03:53;9.10;;;4.43;;
19776;SDS011;10047;42.490;26.012;2023-04-03T08:06:19;7.20;;;3.47;;
19776;SDS011;10047;42.490;26.012;2023-04-03T08:08:46;4.95;;;3.22;;
19776;SDS011;10047;42.490;26.012;2023-04-03T08:11:12;6.78;;;2.63;;
19776;SDS011;10047;42.490;26.012;2023-04-03T08:13:37;4.40;;;2.65;;
19776;SDS011;10047;42.490;26.012;2023-04-03T08:16:10;6.13;;;2.83;;
19776;SDS011;10047;42.490;26.012;2023-04-03T08:18:37;8.90;;;3.15;;
19776;SDS011;10047;42.490;26.012;2023-04-03T08:21:07;4.60;;;3.05;;
19776;SDS011;10047;42.490;26.012;2023-04-03T08:23:33;7.05;;;2.90;;
19776;SDS011;10047;42.490;26.012;2023-04-03T08:25:59;5.13;;;2.53;;
19776;SDS011;10047;42.490;26.012;2023-04-03T08:28:29;8.85;;;2.22;;
19776;SDS011;10047;42.490;26.012;2023-04-03T08:30:55;7.40;;;2.50;;
19776;SDS011;10047;42.490;26.012;2023-04-03T08:33:21;4.57;;;2.60;;
19776;SDS011;10047;42.490;26.012;2023-04-03T08:35:46;3.63;;;1.80;;
19776;SDS011;10047;42.490;26.012;2023-04-03T08:38:11;2.47;;;1.90;;
19776;SDS011;10047;42.490;26.012;2023-04-03T08:40:37;5.72;;;1.77;;
19776;SDS011;10047;42.490;26.012;2023-04-03T08:43:26;9.73;;;1.98;;
19776;SDS011;10047;42.490;26.012;2023-04-03T08:46:11;5.55;;;2.35;;
19776;SDS011;10047;42.490;26.012;2023-04-03T08:48:41;6.22;;;2.20;;
19776;SDS011;10047;42.490;26.012;2023-04-03T08:51:13;2.83;;;1.40;;
19776;SDS011;10047;42.490;26.012;2023-04-03T08:53:43;2.42;;;1.40;;
19776;SDS011;10047;42.490;26.012;2023-04-03T08:56:19;2.45;;;1.67;;
19776;SDS011;10047;42.490;26.012;2023-04-03T08:58:47;4.63;;;2.28;;
19776;SDS011;10047;42.490;26.012;2023-04-03T09:01:30;3.65;;;1.77;;
19776;SDS011;10047;42.490;26.012;2023-04-03T09:04:01;5.40;;;2.55;;
19776;SDS011;10047;42.490;26.012;2023-04-03T09:06:31;2.85;;;1.48;;
19776;SDS011;10047;42.490;26.012;2023-04-03T09:14:46;2.55;;;1.30;;
19776;SDS011;10047;42.490;26.012;2023-04-03T09:17:23;3.03;;;1.52;;
19776;SDS011;10047;42.490;26.012;2023-04-03T09:19:56;2.22;;;1.48;;
19776;SDS011;10047;42.490;26.012;2023-04-03T09:22:31;3.10;;;1.52;;
19776;SDS011;10047;42.490;26.012;2023-04-03T09:24:59;2.42;;;1.50;;
19776;SDS011;10047;42.490;26.012;2023-04-03T09:27:32;4.38;;;0.95;;
19776;SDS011;10047;42.490;26.012;2023-04-03T09:29:58;2.13;;;1.17;;
19776;SDS011;10047;42.490;26.012;2023-04-03T09:32:33;2.20;;;1.27;;
19776;SDS011;10047;42.490;26.012;2023-04-03T09:35:03;2.08;;;0.90;;
19776;SDS011;10047;42.490;26.012;2023-04-03T09:37:39;1.40;;;0.88;;
19776;SDS011;10047;42.490;26.012;2023-04-03T09:40:30;3.60;;;1.10;;
19776;SDS011;10047;42.490;26.012;2023-04-03T09:42:58;3.35;;;1.50;;
19776;SDS011;10047;42.490;26.012;2023-04-03T09:45:27;4.85;;;1.90;;
19776;SDS011;10047;42.490;26.012;2023-04-03T09:50:41;2.95;;;1.55;;
19776;SDS011;10047;42.490;26.012;2023-04-03T09:55:59;3.17;;;1.80;;
19776;SDS011;10047;42.490;26.012;2023-04-03T09:58:47;2.65;;;1.65;;
19776;SDS011;10047;42.490;26.012;2023-04-03T10:06:45;3.30;;;1.90;;
19776;SDS011;10047;42.490;26.012;2023-04-03T10:09:18;2.55;;;1.60;;
19776;SDS011;10047;42.490;26.012;2023-04-03T10:12:04;3.70;;;1.77;;
19776;SDS011;10047;42.490;26.012;2023-04-03T10:14:30;3.05;;;1.70;;
19776;SDS011;10047;42.490;26.012;2023-04-03T10:22:28;2.50;;;1.10;;
19776;SDS011;10047;42.490;26.012;2023-04-03T10:27:55;5.03;;;1.60;;
19776;SDS011;10047;42.490;26.012;2023-04-03T10:39:04;4.90;;;1.95;;
19776;SDS011;10047;42.490;26.012;2023-04-03T10:41:39;6.10;;;2.20;;
19776;SDS011;10047;42.490;26.012;2023-04-03T10:46:58;2.72;;;1.67;;
19776;SDS011;10047;42.490;26.012;2023-04-03T10:52:25;3.92;;;1.80;;
19776;SDS011;10047;42.490;26.012;2023-04-03T10:55:35;5.90;;;1.73;;
19776;SDS011;10047;42.490;26.012;2023-04-03T10:58:06;3.97;;;1.40;;
19776;SDS011;10047;42.490;26.012;2023-04-03T11:00:45;5.55;;;1.70;;
19776;SDS011;10047;42.490;26.012;2023-04-03T11:03:23;2.92;;;1.67;;
19776;SDS011;10047;42.490;26.012;2023-04-03T11:05:56;3.55;;;1.38;;
19776;SDS011;10047;42.490;26.012;2023-04-03T11:10:55;4.05;;;2.00;;
19776;SDS011;10047;42.490;26.012;2023-04-03T11:13:33;2.42;;;1.50;;
19776;SDS011;10047;42.490;26.012;2023-04-03T11:16:02;5.40;;;2.05;;
19776;SDS011;10047;42.490;26.012;2023-04-03T11:18:41;6.10;;;2.33;;
19776;SDS011;10047;42.490;26.012;2023-04-03T11:24:13;5.30;;;2.90;;
19776;SDS011;10047;42.490;26.012;2023-04-03T11:26:45;5.78;;;3.00;;
19776;SDS011;10047;42.490;26.012;2023-04-03T11:29:13;6.47;;;3.95;;
19776;SDS011;10047;42.490;26.012;2023-04-03T11:37:51;7.60;;;3.45;;
19776;SDS011;10047;42.490;26.012;2023-04-03T11:40:02;8.02;;;3.45;;
19776;SDS011;10047;42.490;26.012;2023-04-03T11:42:38;4.90;;;2.80;;
19776;SDS011;10047;42.490;26.012;2023-04-03T11:50:30;4.65;;;2.70;;
19776;SDS011;10047;42.490;26.012;2023-04-03T11:52:56;6.47;;;3.60;;
19776;SDS011;10047;42.490;26.012;2023-04-03T12:05:48;9.82;;;4.88;;
19776;SDS011;10047;42.490;26.012;2023-04-03T12:08:27;8.48;;;4.47;;
19776;SDS011;10047;42.490;26.012;2023-04-03T12:16:19;12.23;;;4.80;;
19776;SDS011;10047;42.490;26.012;2023-04-03T12:21:14;7.10;;;4.50;;
19776;SDS011;10047;42.490;26.012;2023-04-03T12:26:38;11.45;;;5.50;;
19776;SDS011;10047;42.490;26.012;2023-04-03T12:29:14;7.57;;;4.93;;
19776;SDS011;10047;42.490;26.012;2023-04-03T12:37:37;10.80;;;5.65;;
19776;SDS011;10047;42.490;26.012;2023-04-03T12:45:20;15.18;;;7.50;;
19776;SDS011;10047;42.490;26.012;2023-04-03T12:47:49;13.43;;;6.88;;
19776;SDS011;10047;42.490;26.012;2023-04-03T12:50:18;13.48;;;7.10;;
19776;SDS011;10047;42.490;26.012;2023-04-03T12:56:19;10.48;;;5.60;;
19776;SDS011;10047;42.490;26.012;2023-04-03T12:58:46;7.15;;;4.30;;
19776;SDS011;10047;42.490;26.012;2023-04-03T13:01:13;9.52;;;4.85;;
19776;SDS011;10047;42.490;26.012;2023-04-03T13:03:44;8.88;;;5.28;;
19776;SDS011;10047;42.490;26.012;2023-04-03T13:06:14;9.85;;;5.68;;
19776;SDS011;10047;42.490;26.012;2023-04-03T13:08:53;9.57;;;4.82;;
19776;SDS011;10047;42.490;26.012;2023-04-03T13:11:22;11.43;;;6.22;;
19776;SDS011;10047;42.490;26.012;2023-04-03T13:14:03;14.82;;;7.38;;
19776;SDS011;10047;42.490;26.012;2023-04-03T13:16:38;13.55;;;7.28;;
19776;SDS011;10047;42.490;26.012;2023-04-03T13:19:06;14.27;;;7.60;;
19776;SDS011;10047;42.490;26.012;2023-04-03T13:21:40;10.95;;;6.65;;
19776;SDS011;10047;42.490;26.012;2023-04-03T13:24:06;12.70;;;7.07;;
19776;SDS011;10047;42.490;26.012;2023-04-03T13:26:33;14.93;;;8.30;;
19776;SDS011;10047;42.490;26.012;2023-04-03T13:29:01;12.88;;;7.50;;
19776;SDS011;10047;42.490;26.012;2023-04-03T13:31:30;11.13;;;6.63;;
19776;SDS011;10047;42.490;26.012;2023-04-03T13:36:44;13.68;;;8.02;;
19776;SDS011;10047;42.490;26.012;2023-04-03T13:39:32;17.08;;;8.10;;
19776;SDS011;10047;42.490;26.012;2023-04-03T13:42:00;21.70;;;9.27;;
19776;SDS011;10047;42.490;26.012;2023-04-03T13:44:39;19.60;;;8.90;;
19776;SDS011;10047;42.490;26.012;2023-04-03T13:49:43;12.60;;;7.70;;
19776;SDS011;10047;42.490;26.012;2023-04-03T13:52:25;12.20;;;7.05;;
19776;SDS011;10047;42.490;26.012;2023-04-03T13:55:01;8.98;;;6.88;;
19776;SDS011;10047;42.490;26.012;2023-04-03T13:58:51;11.98;;;6.90;;
19776;SDS011;10047;42.490;26.012;2023-04-03T14:03:46;10.23;;;8.18;;
19776;SDS011;10047;42.490;26.012;2023-04-03T14:06:22;11.63;;;8.68;;
19776;SDS011;10047;42.490;26.012;2023-04-03T14:08:49;11.45;;;8.40;;
19776;SDS011;10047;42.490;26.012;2023-04-03T14:11:25;11.50;;;8.90;;
19776;SDS011;10047;42.490;26.012;2023-04-03T14:13:54;15.48;;;8.93;;
19776;SDS011;10047;42.490;26.012;2023-04-03T14:16:23;12.10;;;8.52;;
19776;SDS011;10047;42.490;26.012;2023-04-03T14:18:52;12.98;;;9.40;;
19776;SDS011;10047;42.490;26.012;2023-04-03T14:21:18;14.45;;;9.38;;
19776;SDS011;10047;42.490;26.012;2023-04-03T14:23:44;13.10;;;8.82;;
19776;SDS011;10047;42.490;26.012;2023-04-03T14:26:21;13.18;;;8.98;;
19776;SDS011;10047;42.490;26.012;2023-04-03T14:28:50;11.43;;;8.63;;
19776;SDS011;10047;42.490;26.012;2023-04-03T14:31:18;13.70;;;9.80;;
19776;SDS011;10047;42.490;26.012;2023-04-03T14:33:44;17.65;;;12.07;;
19776;SDS011;10047;42.490;26.012;2023-04-03T14:36:14;15.85;;;11.88;;
19776;SDS011;10047;42.490;26.012;2023-04-03T14:38:41;16.15;;;11.40;;
19776;SDS011;10047;42.490;26.012;2023-04-03T14:41:09;15.13;;;11.30;;
19776;SDS011;10047;42.490;26.012;2023-04-03T14:43:37;17.45;;;12.48;;
19776;SDS011;10047;42.490;26.012;2023-04-03T14:46:04;12.40;;;9.45;;
19776;SDS011;10047;42.490;26.012;2023-04-03T14:48:30;10.50;;;6.93;;
19776;SDS011;10047;42.490;26.012;2023-04-03T14:50:56;10.48;;;6.65;;
19776;SDS011;10047;42.490;26.012;2023-04-03T14:53:22;8.43;;;5.05;;
19776;SDS011;10047;42.490;26.012;2023-04-03T14:55:49;6.95;;;4.20;;
19776;SDS011;10047;42.490;26.012;2023-04-03T14:58:16;8.00;;;5.22;;
19776;SDS011;10047;42.490;26.012;2023-04-03T15:00:44;6.10;;;4.10;;
19776;SDS011;10047;42.490;26.012;2023-04-03T15:03:20;5.63;;;3.58;;
19776;SDS011;10047;42.490;26.012;2023-04-03T15:05:47;4.75;;;2.88;;
19776;SDS011;10047;42.490;26.012;2023-04-03T15:08:18;5.38;;;2.90;;
19776;SDS011;10047;42.490;26.012;2023-04-03T15:10:46;3.42;;;2.38;;
19776;SDS011;10047;42.490;26.012;2023-04-03T15:13:12;4.15;;;2.35;;
19776;SDS011;10047;42.490;26.012;2023-04-03T15:15:38;5.47;;;3.00;;
19776;SDS011;10047;42.490;26.012;2023-04-03T15:18:04;3.13;;;2.60;;
19776;SDS011;10047;42.490;26.012;2023-04-03T15:20:30;4.20;;;2.55;;
19776;SDS011;10047;42.490;26.012;2023-04-03T15:22:58;4.38;;;2.85;;
19776;SDS011;10047;42.490;26.012;2023-04-03T15:25:28;3.70;;;2.85;;
19776;SDS011;10047;42.490;26.012;2023-04-03T15:27:54;4.75;;;3.20;;
19776;SDS011;10047;42.490;26.012;2023-04-03T15:30:21;4.28;;;3.30;;
19776;SDS011;10047;42.490;26.012;2023-04-03T15:32:46;5.38;;;4.00;;
19776;SDS011;10047;42.490;26.012;2023-04-03T15:35:13;4.75;;;3.85;;
19776;SDS011;10047;42.490;26.012;2023-04-03T15:37:38;6.32;;;4.72;;
19776;SDS011;10047;42.490;26.012;2023-04-03T15:40:05;6.70;;;5.97;;
19776;SDS011;10047;42.490;26.012;2023-04-03T15:42:32;9.75;;;5.90;;
19776;SDS011;10047;42.490;26.012;2023-04-03T15:44:59;8.77;;;6.90;;
19776;SDS011;10047;42.490;26.012;2023-04-03T15:47:29;9.30;;;7.00;;
19776;SDS011;10047;42.490;26.012;2023-04-03T15:49:54;9.48;;;7.82;;
19776;SDS011;10047;42.490;26.012;2023-04-03T15:52:20;11.43;;;8.02;;
19776;SDS011;10047;42.490;26.012;2023-04-03T15:54:46;11.13;;;8.13;;
19776;SDS011;10047;42.490;26.012;2023-04-03T15:57:12;10.73;;;8.82;;
19776;SDS011;10047;42.490;26.012;2023-04-03T15:59:37;12.23;;;8.68;;
19776;SDS011;10047;42.490;26.012;2023-04-03T16:02:03;12.45;;;10.65;;
19776;SDS011;10047;42.490;26.012;2023-04-03T16:04:32;13.05;;;10.25;;
19776;SDS011;10047;42.490;26.012;2023-04-03T16:07:03;13.77;;;10.75;;
19776;SDS011;10047;42.490;26.012;2023-04-03T16:09:29;14.00;;;11.68;;
19776;SDS011;10047;42.490;26.012;2023-04-03T16:11:56;12.20;;;10.93;;
19776;SDS011;10047;42.490;26.012;2023-04-03T16:14:22;11.63;;;9.82;;
19776;SDS011;10047;42.490;26.012;2023-04-03T16:16:47;12.38;;;11.07;;
19776;SDS011;10047;42.490;26.012;2023-04-03T16:19:13;14.23;;;11.27;;
19776;SDS011;10047;42.490;26.012;2023-04-03T16:21:38;12.88;;;10.93;;
19776;SDS011;10047;42.490;26.012;2023-04-03T16:24:04;13.40;;;11.00;;
19776;SDS011;10047;42.490;26.012;2023-04-03T16:26:30;13.55;;;10.75;;
19776;SDS011;10047;42.490;26.012;2023-04-03T16:28:55;13.23;;;10.93;;